Terminal Aerodrome Forecast
Issued by NWS

Current Version | Previous Version | Text Only | Print | Product List | Glossary Off
Versions: 1 2 3 4 5 6 7 8 9 10 11 12 13 14 15 16 17 18 19 20 21 22 23

000
FTUS44 KCRP 051700
TAFLRD
TAF
KLRD 051728Z 0518/0618 35019G26KT P6SM BKN027 OVC060
      TEMPO 0519/0521 SCT025 OVC060
     FM052100 35014G19KT P6SM SCT035 OVC060
     FM060100 02008KT P6SM FEW040 SCT070=

USA.gov is the U.S. government's official web portal to all federal, state and local government web resources and services.